Centennial Airport
KAPA : now visible

Airfield :











YOU CAN JOIN US ON...

 
LOGIN :

Register | Disclaimer

   EN    FR    IT 

 









Legend :    VFR   Marginal VFR   IFR   Intensive IFR   Very Intensive IFR
Visi :
Ceiling :
>= 8 km
>= 3000ft
5 to 8 km
1000 to 3000 ft
1500m to 5 km
500 to 1000 ft
800 to 1500m
200 to 500 ft
< 800m
< 200 ft
Symbols :   Thunderstorms  Fog  Heavy snow  Heavy precipitations  Wind > 20 kt






- Airport Elevation : 5885 ft


KAPA - Centennial

CURRENT METAR :
  • 100253Z 16012G20KT 10SM FEW140 FEW220 26/13 A3008 RMK AO2 LTG DSNT N SLP101 TCU DSNT N MOV E T02610128 50010

EXPIRED METARs :
  • 100153Z 15013KT 10SM FEW140 FEW220 28/11 A3009 RMK AO2 SLP104 T02780106
  • 100053Z 15016KT 10SM FEW110 SCT140 29/09 A3006 RMK AO2 PK WND 17027/0037 SLP094 T02940094

TAF KAPA
Valid from the 10 at 00:00 until the 11 at 00:00 UTC


092337Z 1000/1024 15015G25KT P6SM FEW090 BKN140
FM100200 16012KT P6SM BKN110
FM100600 18010KT P6SM SCT080
FM101500 32006KT P6SM FEW250
KZDV FIR / North America



MET'MAP, your aeronautical weather chart ! - Copyright ORBIFLY December 2007 - Disclaimer

ORBIFLY MET'MAP TEAM :

Programming & Development : Alexandra Zaïnal
Concept & original design : Baudouin d'Aumeries
Assistance for programming : Marc-Olivier Méhu
Technical & hardware support : Manuel Goepfert

Contact : metmap@orbifly.com




SOURCES & CREDITS :

   NOAA       Earth
Advisory